Time;durP1;ratioP1;P1;durP2;ratioP2;P2;SDS_P1;SDS_P2;PMS_P1;PMS_P2;Temp;Humidity;BMP_temperature;BMP_pressure;BME280_temperature;BME280_humidity;BME280_pressure;Samples;Min_cycle;Max_cycle;Signal;HPM_P1;HPM_P2
2022/04/21 00:00:54;;;;;;;1.80;1.00;;;21.10;61.40;;;;;;4135738;28;20333;-50
2022/04/21 00:02:57;;;;;;;2.65;1.55;;;21.00;61.10;;;;;;4137344;28;20049;-50
2022/04/21 00:04:59;;;;;;;4.35;1.33;;;21.10;61.40;;;;;;4146620;28;20210;-50
2022/04/21 00:07:01;;;;;;;2.37;1.20;;;21.10;61.50;;;;;;4132133;28;21342;-43
2022/04/21 00:09:03;;;;;;;1.85;1.10;;;21.10;61.70;;;;;;4134151;28;20742;-48
2022/04/21 00:11:05;;;;;;;2.00;0.90;;;21.20;61.80;;;;;;4155232;28;20770;-44
2022/04/21 00:13:07;;;;;;;2.40;1.05;;;21.20;61.70;;;;;;4132474;28;20064;-47
2022/04/21 00:15:11;;;;;;;2.58;0.98;;;21.30;61.60;;;;;;4133614;28;20060;-46
2022/04/21 00:17:13;;;;;;;2.55;1.10;;;21.30;61.50;;;;;;4142261;28;20056;-50
2022/04/21 00:19:15;;;;;;;2.42;0.80;;;21.40;61.70;;;;;;4138790;28;20112;-46
2022/04/21 00:21:17;;;;;;;1.52;0.80;;;21.40;61.30;;;;;;4135039;28;20553;-51
2022/04/21 00:23:26;;;;;;;1.65;0.68;;;21.50;61.20;;;;;;4141279;28;20052;-48
2022/04/21 00:25:29;;;;;;;0.60;0.60;;;21.50;61.20;;;;;;4144279;28;20059;-45
2022/04/21 00:27:36;;;;;;;1.35;0.85;;;21.50;61.10;;;;;;4135196;28;20056;-51
2022/04/21 00:29:39;;;;;;;1.48;0.70;;;21.60;61.10;;;;;;4134416;28;20049;-46
2022/04/21 00:31:41;;;;;;;;;;;21.60;61.50;;;;;;4135730;28;20057;-49
2022/04/21 00:33:43;;;;;;;2.72;0.80;;;21.70;61.00;;;;;;4143323;28;19963;-48
2022/04/21 00:35:45;;;;;;;0.70;0.70;;;21.70;61.00;;;;;;4139308;28;20048;-50
2022/04/21 00:37:57;;;;;;;0.55;0.50;;;21.70;60.80;;;;;;4137470;28;20063;-46
2022/04/21 00:40:00;;;;;;;1.35;0.50;;;21.70;61.40;;;;;;4139107;28;20068;-45
2022/04/21 00:42:03;;;;;;;0.63;0.52;;;21.80;60.80;;;;;;4146275;28;20144;-46
2022/04/21 00:44:05;;;;;;;1.63;0.73;;;21.80;60.80;;;;;;4145817;28;20400;-52
2022/04/21 00:46:17;;;;;;;3.03;0.60;;;21.80;60.70;;;;;;4145385;28;20057;-49
2022/04/21 00:48:20;;;;;;;0.60;0.50;;;21.90;60.70;;;;;;4156580;28;20198;-47
2022/04/21 00:50:30;;;;;;;0.57;0.57;;;21.90;60.60;;;;;;4149844;28;20064;-54
2022/04/21 00:52:33;;;;;;;1.75;0.70;;;21.90;60.70;;;;;;4149434;28;20056;-53
2022/04/21 00:54:35;;;;;;;5.10;0.90;;;22.00;60.70;;;;;;4155955;28;20057;-54
2022/04/21 00:56:38;;;;;;;2.85;0.70;;;22.00;60.60;;;;;;4144232;28;20057;-50
2022/04/21 00:58:43;;;;;;;1.73;0.60;;;22.00;60.50;;;;;;4147546;28;20128;-44
2022/04/21 01:00:48;;;;;;;0.95;0.63;;;22.00;60.40;;;;;;4143788;28;20053;-53
2022/04/21 01:02:54;;;;;;;2.50;0.60;;;22.00;60.30;;;;;;4142510;28;21881;-48
2022/04/21 01:04:56;;;;;;;1.25;0.60;;;22.10;60.20;;;;;;4139587;28;20048;-48
2022/04/21 01:06:59;;;;;;;1.45;0.60;;;22.10;60.30;;;;;;4140799;28;20111;-46
2022/04/21 01:09:01;;;;;;;0.30;0.30;;;22.10;60.30;;;;;;4144522;28;20060;-44
2022/04/21 01:11:03;;;;;;;;;;;22.20;60.20;;;;;;4144583;28;20175;-48
2022/04/21 01:13:07;;;;;;;1.08;0.75;;;22.20;60.30;;;;;;4139707;28;19933;-52
2022/04/21 01:15:10;;;;;;;0.95;0.60;;;22.20;60.20;;;;;;4137097;28;20064;-48
2022/04/21 01:17:13;;;;;;;0.40;0.40;;;22.20;60.10;;;;;;4150101;28;20570;-50
2022/04/21 01:19:15;;;;;;;;;;;22.30;60.20;;;;;;4137635;28;20243;-46
2022/04/21 01:21:17;;;;;;;0.73;0.50;;;22.30;60.10;;;;;;4136640;28;19929;-48
2022/04/21 01:23:20;;;;;;;1.27;0.50;;;22.30;60.10;;;;;;4114648;28;20151;-51
2022/04/21 01:25:24;;;;;;;0.52;0.52;;;22.40;60.10;;;;;;4119965;28;20053;-48
2022/04/21 01:27:31;;;;;;;0.77;0.60;;;22.40;60.10;;;;;;4131447;28;20611;-49
2022/04/21 01:29:33;;;;;;;0.40;0.40;;;22.40;60.10;;;;;;4094731;28;20058;-50
2022/04/21 01:31:36;;;;;;;1.40;0.52;;;22.40;60.10;;;;;;4113524;28;20061;-52
2022/04/21 01:33:40;;;;;;;1.58;0.70;;;22.40;60.20;;;;;;4139580;28;20069;-55
2022/04/21 01:35:42;;;;;;;0.40;0.40;;;22.50;60.20;;;;;;4115492;28;20092;-47
2022/04/21 01:42:27;;;;;;;0.50;0.50;;;22.50;60.10;;;;;;4140940;28;20211;-50
2022/04/21 01:44:29;;;;;;;1.75;0.47;;;22.50;60.00;;;;;;4110107;28;20085;-49
2022/04/21 01:46:31;;;;;;;1.20;0.60;;;22.60;60.00;;;;;;4128210;28;20094;-48
2022/04/21 01:48:34;;;;;;;0.38;0.38;;;22.60;60.00;;;;;;4137541;28;20061;-50
2022/04/21 01:50:37;;;;;;;2.08;0.47;;;22.60;60.00;;;;;;4132851;28;20048;-48
2022/04/21 01:52:39;;;;;;;0.47;0.47;;;22.60;60.00;;;;;;4130464;28;20056;-54
2022/04/21 01:54:44;;;;;;;0.60;0.52;;;22.60;60.00;;;;;;4134983;28;20043;-50
2022/04/21 01:56:46;;;;;;;0.52;0.47;;;22.60;60.00;;;;;;4123631;28;20053;-52
2022/04/21 01:58:48;;;;;;;1.92;0.52;;;22.70;60.00;;;;;;4131571;28;20048;-48
2022/04/21 02:00:51;;;;;;;1.27;0.93;;;22.70;59.90;;;;;;4129643;28;20063;-45
2022/04/21 02:02:53;;;;;;;0.57;0.40;;;22.70;59.90;;;;;;4138554;28;20092;-54
2022/04/21 02:04:55;;;;;;;1.65;0.50;;;22.70;59.80;;;;;;4129979;28;20060;-46
2022/04/21 02:06:59;;;;;;;1.52;0.60;;;22.70;59.90;;;;;;4110340;28;20061;-53
2022/04/21 02:09:01;;;;;;;1.17;0.50;;;22.70;59.90;;;;;;4115496;28;20060;-53
2022/04/21 02:11:03;;;;;;;0.38;0.38;;;22.70;60.00;;;;;;4138808;28;20149;-50
2022/04/21 02:13:06;;;;;;;0.68;0.50;;;22.70;60.00;;;;;;4125764;28;20766;-52
2022/04/21 02:15:09;;;;;;;1.13;0.70;;;22.70;60.00;;;;;;4129588;28;20475;-46
2022/04/21 02:19:21;;;;;;;2.28;0.50;;;22.70;60.00;;;;;;4228280;23;20058;-61
2022/04/21 02:21:23;;;;;;;0.90;0.50;;;22.70;60.00;;;;;;4069013;28;20825;-64
2022/04/21 02:23:25;;;;;;;1.33;0.70;;;22.70;60.00;;;;;;4085823;28;20053;-66
2022/04/21 02:25:28;;;;;;;0.88;0.70;;;22.70;60.00;;;;;;4058375;28;21089;-65
2022/04/21 02:27:31;;;;;;;1.52;0.60;;;22.70;60.10;;;;;;4089118;28;22447;-59
2022/04/21 02:29:33;;;;;;;3.75;0.82;;;22.70;60.00;;;;;;4086114;28;20050;-61
2022/04/21 02:33:43;;;;;;;0.68;0.60;;;22.70;60.30;;;;;;4064441;28;20375;-59
2022/04/21 02:35:45;;;;;;;1.63;0.68;;;22.80;60.40;;;;;;4071631;28;20738;-59
2022/04/21 02:37:48;;;;;;;2.13;0.65;;;22.80;60.20;;;;;;4048645;28;20196;-60
2022/04/21 02:39:50;;;;;;;1.88;0.75;;;22.80;60.30;;;;;;4052343;28;20054;-60
2022/04/21 02:41:53;;;;;;;2.88;1.20;;;22.80;60.40;;;;;;4082502;28;20050;-60
2022/04/21 02:43:55;;;;;;;2.33;0.90;;;22.80;59.80;;;;;;4055278;28;20186;-60
2022/04/21 02:45:58;;;;;;;2.13;1.10;;;22.80;59.60;;;;;;4069422;28;20169;-60
2022/04/21 02:48:00;;;;;;;3.53;1.30;;;22.70;59.70;;;;;;4077317;28;20575;-61
2022/04/21 02:50:03;;;;;;;1.95;1.05;;;22.70;60.00;;;;;;4076940;28;20062;-60
2022/04/21 02:52:11;;;;;;;1.60;1.02;;;22.60;60.20;;;;;;4052080;28;20664;-60
2022/04/21 02:58:54;;;;;;;1.35;1.05;;;22.50;60.40;;;;;;4061838;28;20141;-61
2022/04/21 03:00:56;;;;;;;4.35;1.13;;;22.50;60.60;;;;;;4076318;28;20051;-61
2022/04/21 03:02:58;;;;;;;3.08;1.80;;;22.50;60.70;;;;;;4068913;28;20126;-61
2022/04/21 03:05:00;;;;;;;2.20;1.50;;;22.40;60.90;;;;;;4063208;28;20647;-61
2022/04/21 03:07:03;;;;;;;4.95;1.60;;;22.40;61.00;;;;;;4057174;28;20945;-60
2022/04/21 03:09:05;;;;;;;1.77;1.00;;;22.40;61.30;;;;;;4052840;28;20097;-60
2022/04/21 03:11:07;;;;;;;2.92;1.38;;;22.40;61.30;;;;;;4074753;28;20535;-60
2022/04/21 03:13:09;;;;;;;4.13;1.60;;;22.30;61.50;;;;;;4057681;28;20070;-60
2022/04/21 03:15:12;;;;;;;2.15;1.17;;;22.30;61.70;;;;;;4070118;28;20189;-59
2022/04/21 03:17:14;;;;;;;4.32;1.50;;;22.30;61.80;;;;;;4055874;28;20059;-60
2022/04/21 03:19:16;;;;;;;5.97;1.70;;;22.30;62.20;;;;;;4050569;28;20052;-60
2022/04/21 03:25:59;;;;;;;1.90;1.02;;;22.30;62.80;;;;;;4060497;28;20081;-61
2022/04/21 03:28:04;;;;;;;3.90;1.52;;;22.30;62.60;;;;;;4082314;28;20125;-63
2022/04/21 03:30:08;;;;;;;2.40;1.35;;;22.30;62.30;;;;;;4075345;28;20061;-59
2022/04/21 03:32:13;;;;;;;3.78;1.80;;;22.30;62.90;;;;;;4073103;28;20054;-60
2022/04/21 03:34:18;;;;;;;5.82;1.98;;;22.40;63.80;;;;;;4081334;28;20077;-60
2022/04/21 03:36:21;;;;;;;4.60;1.40;;;22.40;63.70;;;;;;4065303;28;20109;-59
2022/04/21 03:38:23;;;;;;;3.58;1.38;;;22.40;63.50;;;;;;4076777;28;21915;-60
2022/04/21 03:40:25;;;;;;;2.35;1.48;;;22.40;63.50;;;;;;4075100;28;20813;-60
2022/04/21 03:42:31;;;;;;;2.13;1.20;;;22.50;63.40;;;;;;4064820;28;20572;-60
2022/04/21 03:44:34;;;;;;;3.58;1.27;;;22.50;63.50;;;;;;4081462;28;20133;-61
2022/04/21 03:46:37;;;;;;;3.15;1.38;;;22.50;63.40;;;;;;4057783;28;20162;-60
2022/04/21 03:48:40;;;;;;;4.82;0.95;;;22.50;63.30;;;;;;4075005;28;20734;-61
2022/04/21 03:50:42;;;;;;;3.60;1.20;;;22.50;63.30;;;;;;4081327;28;20069;-59
2022/04/21 03:52:44;;;;;;;2.58;0.98;;;22.50;63.60;;;;;;4079927;28;20054;-60
2022/04/21 03:54:47;;;;;;;3.35;1.33;;;22.50;63.60;;;;;;4058948;28;20059;-60
2022/04/21 03:56:50;;;;;;;1.77;1.20;;;22.60;63.70;;;;;;4059836;28;20483;-61
2022/04/21 03:58:53;;;;;;;2.75;1.33;;;22.60;63.60;;;;;;4084340;28;20832;-61
2022/04/21 04:00:55;;;;;;;1.57;0.93;;;22.60;63.50;;;;;;4054381;28;20145;-60
2022/04/21 04:02:57;;;;;;;2.47;1.00;;;22.60;63.50;;;;;;4072468;28;20120;-59
2022/04/21 04:05:02;;;;;;;2.25;1.10;;;22.60;63.40;;;;;;4065093;28;20058;-60
2022/04/21 04:11:46;;;;;;;3.55;1.05;;;22.70;63.30;;;;;;4062694;28;20054;-60
2022/04/21 04:13:49;;;;;;;1.85;1.00;;;22.70;63.20;;;;;;4071818;28;20090;-63
2022/04/21 04:15:52;;;;;;;1.77;0.80;;;22.70;63.30;;;;;;4082594;28;20062;-60
2022/04/21 04:17:54;;;;;;;1.92;0.85;;;22.70;63.20;;;;;;4074975;28;20142;-60
2022/04/21 04:19:56;;;;;;;3.67;1.63;;;22.70;63.20;;;;;;4080903;28;20060;-62
2022/04/21 04:21:58;;;;;;;2.90;1.00;;;22.70;63.10;;;;;;4089008;28;20054;-60
2022/04/21 04:24:00;;;;;;;1.60;0.82;;;22.70;63.10;;;;;;4061809;28;20075;-60
2022/04/21 04:26:02;;;;;;;1.58;0.80;;;22.70;63.10;;;;;;4078062;28;20116;-60
2022/04/21 04:28:05;;;;;;;3.70;1.08;;;22.70;63.10;;;;;;4068247;28;20489;-60
2022/04/21 04:30:09;;;;;;;1.48;1.08;;;22.70;63.10;;;;;;4064773;28;21330;-61
2022/04/21 04:32:11;;;;;;;2.25;1.05;;;22.70;63.70;;;;;;4061173;28;20058;-59
2022/04/21 04:34:14;;;;;;;1.77;0.80;;;22.70;63.10;;;;;;4093917;28;20046;-59
2022/04/21 04:36:16;;;;;;;2.08;0.98;;;22.80;63.10;;;;;;4075014;28;20068;-60
2022/04/21 04:38:18;;;;;;;1.25;0.60;;;22.80;63.00;;;;;;4088487;28;20108;-60
2022/04/21 04:40:21;;;;;;;3.30;0.95;;;22.80;63.10;;;;;;4090635;28;20050;-60
2022/04/21 04:42:23;;;;;;;1.33;0.70;;;22.80;63.00;;;;;;4090830;28;20082;-61
2022/04/21 04:44:25;;;;;;;1.30;0.70;;;22.80;63.00;;;;;;4063886;28;20064;-55
2022/04/21 04:46:40;;;;;;;2.42;0.70;;;22.80;62.90;;;;;;4083076;28;20576;-59
2022/04/21 04:48:42;;;;;;;0.98;0.70;;;22.80;63.00;;;;;;4105853;28;20064;-58
2022/04/21 04:50:53;;;;;;;1.88;0.93;;;22.80;63.00;;;;;;4093771;28;20041;-58
2022/04/21 04:53:00;;;;;;;1.75;0.98;;;22.80;62.90;;;;;;4094738;28;20061;-55
2022/04/21 04:55:02;;;;;;;1.85;1.10;;;22.80;62.90;;;;;;4093356;28;20054;-59
2022/04/21 04:57:05;;;;;;;2.97;0.70;;;22.80;62.90;;;;;;4088497;28;20180;-57
2022/04/21 04:59:07;;;;;;;2.08;0.70;;;22.80;62.90;;;;;;4063756;28;20058;-59
2022/04/21 05:01:12;;;;;;;1.37;0.93;;;22.90;63.00;;;;;;4067742;28;20055;-60
2022/04/21 05:03:17;;;;;;;3.38;1.33;;;22.90;62.90;;;;;;4079706;28;20311;-59
2022/04/21 05:05:20;;;;;;;2.78;1.35;;;22.90;62.60;;;;;;4065824;28;20055;-59
2022/04/21 05:07:22;;;;;;;5.93;1.42;;;22.80;62.40;;;;;;4086648;28;20101;-59
2022/04/21 05:09:25;;;;;;;2.85;1.20;;;22.80;62.60;;;;;;4084336;28;20133;-59
2022/04/21 05:11:28;;;;;;;1.33;0.98;;;22.80;62.70;;;;;;4065425;28;20709;-59
2022/04/21 05:13:30;;;;;;;3.00;1.13;;;22.80;62.70;;;;;;4077873;28;20524;-60
2022/04/21 05:15:32;;;;;;;1.73;0.95;;;22.80;62.70;;;;;;4060267;28;20154;-59
2022/04/21 05:17:34;;;;;;;1.63;1.17;;;22.80;62.70;;;;;;4084314;28;20137;-59
2022/04/21 05:19:37;;;;;;;1.38;0.77;;;22.80;62.80;;;;;;4067776;28;20127;-60
2022/04/21 05:21:40;;;;;;;2.70;1.20;;;22.80;62.80;;;;;;4067361;28;20074;-60
2022/04/21 05:23:49;;;;;;;1.30;0.88;;;22.80;62.80;;;;;;4088086;28;20592;-60
2022/04/21 05:25:52;;;;;;;1.85;0.80;;;22.80;62.80;;;;;;4070052;28;20518;-59
2022/04/21 05:27:55;;;;;;;2.17;1.00;;;22.80;62.70;;;;;;4081850;28;20121;-58
2022/04/21 05:32:18;;;;;;;1.95;0.90;;;22.80;62.60;;;;;;4082977;28;20112;-60
2022/04/21 05:34:21;;;;;;;1.73;0.80;;;22.90;62.70;;;;;;4062204;28;20066;-60
2022/04/21 05:36:24;;;;;;;2.75;1.10;;;22.90;62.70;;;;;;4081705;28;20057;-59
2022/04/21 05:38:27;;;;;;;3.40;1.08;;;22.90;62.60;;;;;;4086094;28;20652;-58
2022/04/21 05:40:29;;;;;;;;;;;22.90;62.50;;;;;;4067092;28;20557;-61
2022/04/21 05:42:38;;;;;;;3.63;1.58;;;22.90;62.20;;;;;;4082849;28;19921;-59
2022/04/21 05:44:41;;;;;;;2.63;1.13;;;22.90;61.60;;;;;;4088968;28;20262;-60
2022/04/21 05:46:43;;;;;;;3.83;1.07;;;22.90;61.70;;;;;;4076608;28;20086;-60
2022/04/21 05:48:46;;;;;;;3.30;1.45;;;22.90;61.90;;;;;;4085152;28;20667;-60
2022/04/21 05:50:51;;;;;;;2.22;1.15;;;22.90;62.00;;;;;;4087472;28;20054;-60
2022/04/21 05:52:56;;;;;;;2.83;1.10;;;22.90;62.20;;;;;;4081504;28;20572;-59
2022/04/21 05:54:58;;;;;;;4.55;1.60;;;22.90;62.20;;;;;;4082541;28;20547;-62
2022/04/21 05:57:00;;;;;;;4.23;1.40;;;22.90;62.30;;;;;;4067604;28;20050;-62
2022/04/21 05:59:03;;;;;;;2.83;1.00;;;22.90;62.30;;;;;;4065602;28;20180;-61
2022/04/21 06:01:10;;;;;;;3.67;1.00;;;22.90;62.30;;;;;;4070936;28;20814;-61
2022/04/21 06:03:12;;;;;;;2.63;0.90;;;22.90;62.30;;;;;;4071309;28;20118;-60
2022/04/21 06:05:14;;;;;;;2.57;0.90;;;22.90;62.30;;;;;;4062804;28;20050;-62
2022/04/21 06:07:17;;;;;;;1.67;0.70;;;22.90;62.40;;;;;;4045144;28;20050;-61
2022/04/21 06:09:19;;;;;;;2.63;0.90;;;22.90;62.50;;;;;;4073144;28;20561;-60
2022/04/21 06:11:22;;;;;;;1.33;0.80;;;22.90;62.50;;;;;;4038624;28;20106;-62
2022/04/21 06:13:27;;;;;;;2.17;1.00;;;22.90;61.90;;;;;;4059072;28;20223;-61
2022/04/21 06:15:31;;;;;;;2.17;0.93;;;22.90;62.00;;;;;;4062531;28;20108;-60
2022/04/21 06:17:32;;;;;;;;;;;22.90;62.20;;;;;;4070503;28;20050;-58
2022/04/21 06:19:34;;;;;;;1.92;1.02;;;22.90;62.20;;;;;;4062230;28;20060;-60
2022/04/21 06:21:36;;;;;;;1.42;0.70;;;22.90;62.30;;;;;;4062679;28;20952;-61
2022/04/21 06:23:39;;;;;;;2.08;0.90;;;22.90;62.30;;;;;;4070977;28;20153;-60
2022/04/21 06:25:42;;;;;;;4.38;0.88;;;22.90;62.30;;;;;;4048463;28;20161;-59
2022/04/21 06:27:44;;;;;;;2.85;0.93;;;23.00;62.30;;;;;;4061826;28;20058;-60
2022/04/21 06:29:47;;;;;;;1.08;0.70;;;23.00;62.40;;;;;;4045313;28;20055;-60
2022/04/21 06:31:49;;;;;;;1.02;0.63;;;23.00;62.40;;;;;;4051705;28;20059;-60
2022/04/21 06:33:51;;;;;;;2.35;0.85;;;23.00;62.40;;;;;;4061235;28;20062;-60
2022/04/21 06:35:53;;;;;;;1.27;0.85;;;23.00;62.50;;;;;;4060167;28;20530;-60
2022/04/21 06:37:56;;;;;;;1.13;0.82;;;23.00;62.40;;;;;;4052443;28;20882;-61
2022/04/21 06:39:58;;;;;;;1.77;1.10;;;23.00;62.40;;;;;;4046427;28;20197;-62
2022/04/21 06:42:00;;;;;;;1.15;0.63;;;23.00;62.40;;;;;;4061198;28;20457;-61
2022/04/21 06:48:43;;;;;;;1.33;0.80;;;23.00;62.30;;;;;;4062461;28;20062;-59
2022/04/21 06:50:45;;;;;;;2.55;1.20;;;23.00;62.40;;;;;;4040952;28;20169;-61
2022/04/21 06:52:47;;;;;;;8.02;1.50;;;23.00;62.40;;;;;;4049717;28;20066;-60
2022/04/21 06:54:50;;;;;;;2.65;1.02;;;23.00;62.30;;;;;;4042972;28;20526;-60
2022/04/21 06:56:53;;;;;;;8.07;1.60;;;23.00;62.30;;;;;;4026088;28;20058;-61
2022/04/21 06:58:55;;;;;;;10.20;1.95;;;23.00;62.40;;;;;;4046383;28;20059;-62
2022/04/21 07:00:57;;;;;;;8.37;1.17;;;23.00;62.60;;;;;;4047745;28;21199;-60
2022/04/21 07:02:59;;;;;;;5.28;1.15;;;23.00;62.70;;;;;;4058737;28;20323;-60
2022/04/21 07:05:10;;;;;;;3.25;1.00;;;23.00;62.60;;;;;;4057221;28;20185;-60
2022/04/21 07:07:12;;;;;;;3.33;0.80;;;23.00;62.60;;;;;;4059842;28;20837;-61
2022/04/21 07:09:15;;;;;;;2.72;0.93;;;23.00;62.70;;;;;;4049175;28;20055;-60
2022/04/21 07:11:20;;;;;;;3.10;0.90;;;23.00;62.60;;;;;;4042089;28;20751;-61
2022/04/21 07:13:22;;;;;;;4.88;1.17;;;22.90;62.50;;;;;;4058559;28;20750;-60
2022/04/21 07:15:25;;;;;;;2.90;1.05;;;22.90;62.30;;;;;;4046563;28;20058;-60
2022/04/21 07:17:27;;;;;;;13.48;1.63;;;22.90;62.20;;;;;;4052860;28;20153;-59
2022/04/21 07:19:30;;;;;;;2.78;1.00;;;22.90;62.30;;;;;;4044817;28;20832;-59
2022/04/21 07:21:32;;;;;;;10.85;1.35;;;22.90;62.40;;;;;;4062947;28;20112;-59
2022/04/21 07:23:34;;;;;;;8.90;1.33;;;22.90;62.50;;;;;;4072646;28;21079;-61
2022/04/21 07:25:36;;;;;;;3.60;1.00;;;22.90;62.40;;;;;;4063994;28;21964;-59
2022/04/21 07:27:38;;;;;;;2.95;1.02;;;23.00;62.50;;;;;;4063690;28;20840;-59
2022/04/21 07:29:41;;;;;;;2.35;0.80;;;22.90;62.40;;;;;;4052190;28;20170;-61
2022/04/21 07:31:43;;;;;;;2.05;0.77;;;22.90;62.40;;;;;;4070226;28;22248;-61
2022/04/21 07:33:45;;;;;;;1.88;0.80;;;22.90;62.40;;;;;;4051551;28;20995;-60
2022/04/21 07:37:59;;;;;;;3.05;0.88;;;22.90;62.40;;;;;;4423668;23;20636;-59
2022/04/21 07:40:01;;;;;;;2.00;1.00;;;22.90;62.40;;;;;;4030207;29;20559;-59
2022/04/21 07:42:14;;;;;;;19.15;1.92;;;22.90;62.30;;;;;;4023141;29;20123;-59
2022/04/21 07:44:16;;;;;;;4.90;1.52;;;22.90;62.20;;;;;;4023448;29;20169;-59
2022/04/21 07:46:21;;;;;;;3.13;0.93;;;22.90;62.30;;;;;;4010000;29;20063;-59
2022/04/21 07:49:44;;;;;;;6.93;1.35;;;22.90;62.50;;;;;;4014720;29;20052;-58
2022/04/21 07:50:46;;;;;;;5.57;1.45;;;22.90;62.50;;;;;;4026856;29;20064;-59
2022/04/21 07:55:17;;;;;;;3.70;1.48;;;22.90;61.00;;;;;;4029149;29;20047;-59
2022/04/21 07:57:19;;;;;;;2.42;1.15;;;22.90;61.20;;;;;;4030580;29;20513;-57
2022/04/21 07:59:21;;;;;;;2.38;1.42;;;22.90;61.40;;;;;;4036640;29;20052;-61
2022/04/21 08:01:23;;;;;;;5.40;1.10;;;22.90;61.50;;;;;;4031149;29;20056;-60
2022/04/21 08:03:26;;;;;;;3.47;1.27;;;22.90;61.50;;;;;;4025833;29;20103;-62
2022/04/21 08:05:29;;;;;;;3.10;1.17;;;22.80;61.60;;;;;;4018515;29;20428;-63
2022/04/21 08:07:31;;;;;;;5.68;1.10;;;22.90;62.00;;;;;;4037338;29;20052;-65
2022/04/21 08:09:33;;;;;;;3.25;1.17;;;22.90;62.00;;;;;;4030614;29;20154;-63
2022/04/21 08:11:35;;;;;;;2.90;1.13;;;22.80;61.80;;;;;;4033780;29;20060;-62
2022/04/21 08:13:37;;;;;;;5.32;1.30;;;22.80;61.90;;;;;;4039062;29;20815;-62
2022/04/21 08:15:40;;;;;;;2.15;1.10;;;22.80;61.90;;;;;;4032675;29;20079;-64
2022/04/21 08:17:43;;;;;;;2.00;1.15;;;22.80;62.10;;;;;;4031646;29;20159;-63
2022/04/21 08:19:45;;;;;;;5.80;1.27;;;22.70;62.00;;;;;;4038638;29;20191;-62
2022/04/21 08:21:48;;;;;;;4.82;1.10;;;22.70;62.00;;;;;;4042012;29;20052;-63
2022/04/21 08:23:50;;;;;;;7.63;1.30;;;22.70;62.20;;;;;;4032964;29;20063;-60
2022/04/21 08:32:53;;;;;;;4.40;1.42;;;22.70;62.00;;;;;;4056557;29;20379;-60
2022/04/21 08:35:16;;;;;;;12.27;1.20;;;22.70;61.90;;;;;;4042988;29;20454;-61
2022/04/21 08:37:18;;;;;;;1.88;0.80;;;22.70;61.80;;;;;;4045196;29;20048;-60
2022/04/21 08:39:21;;;;;;;2.33;1.13;;;22.70;61.80;;;;;;4039590;29;20067;-59
2022/04/21 08:41:28;;;;;;;5.55;1.17;;;22.60;61.80;;;;;;4036359;29;20135;-60
2022/04/21 08:43:30;;;;;;;5.20;1.10;;;22.60;61.80;;;;;;4038432;29;20143;-59
2022/04/21 08:45:32;;;;;;;3.97;1.05;;;22.60;61.90;;;;;;4042649;29;20704;-60
2022/04/21 08:47:36;;;;;;;1.75;0.98;;;22.60;62.00;;;;;;4032791;29;20060;-58
2022/04/21 08:49:40;;;;;;;4.78;1.15;;;22.60;62.10;;;;;;4029660;29;20131;-60
2022/04/21 08:51:42;;;;;;;;;;;22.60;62.20;;;;;;4032559;29;20056;-60
2022/04/21 08:53:44;;;;;;;2.30;0.80;;;22.60;62.30;;;;;;4033142;29;19938;-60
2022/04/21 08:55:48;;;;;;;1.83;0.70;;;22.60;62.50;;;;;;4033628;29;20056;-58
2022/04/21 08:57:52;;;;;;;1.23;0.63;;;22.60;62.50;;;;;;4029050;29;20060;-61
2022/04/21 08:59:55;;;;;;;3.00;0.95;;;22.60;62.50;;;;;;4037112;29;20052;-61
2022/04/21 09:02:01;;;;;;;2.28;1.30;;;22.60;62.50;;;;;;4017167;29;20048;-61
2022/04/21 09:04:03;;;;;;;3.38;0.90;;;22.60;62.60;;;;;;4024015;29;20052;-63
2022/04/21 09:06:05;;;;;;;1.77;0.73;;;22.60;62.60;;;;;;4029553;29;20697;-61
2022/04/21 09:08:19;;;;;;;7.07;1.10;;;22.60;62.60;;;;;;4036352;29;20247;-61
2022/04/21 09:10:22;;;;;;;1.52;0.80;;;22.60;62.90;;;;;;4035216;29;20055;-60
2022/04/21 09:12:24;;;;;;;4.45;1.08;;;22.60;63.00;;;;;;4018963;29;20074;-59
2022/04/21 09:14:26;;;;;;;3.75;1.00;;;22.60;62.90;;;;;;4030400;29;20308;-63
2022/04/21 09:16:34;;;;;;;1.98;0.93;;;22.60;62.90;;;;;;4032774;29;20111;-62
2022/04/21 09:19:02;;;;;;;1.00;0.75;;;22.60;62.90;;;;;;4032672;29;20889;-58
2022/04/21 09:21:15;;;;;;;3.15;0.90;;;22.60;63.00;;;;;;4028376;29;20063;-62
2022/04/21 09:23:17;;;;;;;2.75;0.77;;;22.50;63.10;;;;;;4027448;29;20060;-61
2022/04/21 09:25:27;;;;;;;2.60;1.00;;;22.50;63.10;;;;;;4029522;29;20079;-61
2022/04/21 09:27:43;;;;;;;2.42;0.60;;;22.50;63.30;;;;;;4029135;29;20059;-62
2022/04/21 09:29:46;;;;;;;1.98;0.82;;;22.50;63.30;;;;;;4024035;29;20069;-59
2022/04/21 09:31:52;;;;;;;0.70;0.60;;;22.50;63.40;;;;;;4027311;29;20135;-59
2022/04/21 09:33:56;;;;;;;1.50;0.63;;;22.50;63.50;;;;;;4012490;29;20175;-59
2022/04/21 09:36:00;;;;;;;2.20;0.88;;;22.50;63.40;;;;;;4025826;29;20170;-60
2022/04/21 09:38:04;;;;;;;4.57;0.80;;;22.50;63.50;;;;;;4021707;29;20174;-60
2022/04/21 09:40:06;;;;;;;1.65;0.70;;;22.50;63.40;;;;;;4027046;29;20231;-60
2022/04/21 09:42:09;;;;;;;2.05;0.60;;;22.50;63.50;;;;;;4035929;29;20060;-60
2022/04/21 09:46:35;;;;;;;1.65;0.60;;;22.50;63.60;;;;;;4037145;29;20067;-61
2022/04/21 09:48:38;;;;;;;2.55;1.15;;;22.50;63.60;;;;;;4011606;29;20334;-61
2022/04/21 09:50:42;;;;;;;1.30;0.60;;;22.50;63.60;;;;;;4030363;29;20726;-59
2022/04/21 09:52:49;;;;;;;2.67;0.70;;;22.50;63.50;;;;;;4032034;29;20055;-61
2022/04/21 09:54:51;;;;;;;2.78;0.88;;;22.50;63.70;;;;;;4035222;29;20083;-61
2022/04/21 09:56:56;;;;;;;1.33;0.65;;;22.50;63.90;;;;;;4011925;29;20080;-63
2022/04/21 09:59:00;;;;;;;1.60;0.60;;;22.50;63.90;;;;;;4029169;29;20063;-64
2022/04/21 10:01:03;;;;;;;2.97;0.80;;;22.50;64.10;;;;;;4031419;29;20160;-61
2022/04/21 10:03:06;;;;;;;2.30;0.90;;;22.50;64.10;;;;;;4040208;29;20777;-62
2022/04/21 10:05:09;;;;;;;1.55;0.93;;;22.50;64.10;;;;;;4018750;29;20059;-59
2022/04/21 10:07:11;;;;;;;2.47;0.70;;;22.50;64.20;;;;;;4017108;29;20052;-59
2022/04/21 10:09:16;;;;;;;4.00;0.80;;;22.50;64.10;;;;;;4038084;29;20329;-60
2022/04/21 10:11:28;;;;;;;2.42;0.88;;;22.50;64.00;;;;;;4040714;29;20052;-59
2022/04/21 10:13:30;;;;;;;9.82;1.05;;;22.50;64.00;;;;;;4041074;29;20195;-59
2022/04/21 10:15:34;;;;;;;8.15;1.23;;;22.50;64.10;;;;;;4033978;29;20071;-60
2022/04/21 10:17:36;;;;;;;4.63;1.00;;;22.60;64.30;;;;;;4033097;29;20063;-62
2022/04/21 10:19:39;;;;;;;2.28;0.98;;;22.60;64.40;;;;;;4039324;29;20545;-60
2022/04/21 10:21:54;;;;;;;3.50;0.93;;;22.60;64.50;;;;;;4020061;29;20069;-59
2022/04/21 10:23:57;;;;;;;6.80;1.00;;;22.60;64.40;;;;;;4021795;29;21603;-60
2022/04/21 10:26:03;;;;;;;;;;;22.60;64.30;;;;;;4034263;29;20063;-60
2022/04/21 10:28:40;;;;;;;4.38;0.70;;;22.60;64.20;;;;;;4031972;29;19931;-60
2022/04/21 10:30:45;;;;;;;3.75;1.15;;;22.70;64.30;;;;;;4018650;29;20068;-61
2022/04/21 10:32:55;;;;;;;4.75;1.00;;;22.70;64.20;;;;;;4040158;29;20688;-62
2022/04/21 10:34:57;;;;;;;4.18;1.10;;;22.70;64.20;;;;;;4039265;29;20048;-60
2022/04/21 10:37:22;;;;;;;1.77;0.80;;;22.70;64.10;;;;;;4033118;29;20063;-60
2022/04/21 10:39:26;;;;;;;1.13;0.55;;;22.70;64.10;;;;;;4039748;29;20060;-61
2022/04/21 10:41:41;;;;;;;2.25;1.02;;;22.80;64.20;;;;;;4033960;29;20063;-60
2022/04/21 10:43:49;;;;;;;3.40;0.90;;;22.80;64.10;;;;;;4037836;29;20143;-61
2022/04/21 10:46:05;;;;;;;1.60;0.85;;;22.80;64.10;;;;;;4016044;29;20176;-59
2022/04/21 10:48:09;;;;;;;2.83;0.80;;;22.70;64.00;;;;;;4036887;29;21675;-60
2022/04/21 10:50:20;;;;;;;3.22;0.93;;;22.80;64.10;;;;;;4033439;29;20519;-59
2022/04/21 10:57:36;;;;;;;2.60;1.02;;;22.80;64.10;;;;;;4041418;29;20052;-61
2022/04/21 11:00:10;;;;;;;0.80;0.80;;;22.80;64.00;;;;;;4018876;29;20060;-60
2022/04/21 11:02:12;;;;;;;;;;;22.90;64.00;;;;;;4034388;29;20127;-60
2022/04/21 11:04:22;;;;;;;2.05;0.77;;;22.90;63.90;;;;;;4042046;29;20492;-60
2022/04/21 11:07:00;;;;;;;1.88;0.80;;;22.90;63.90;;;;;;4041856;29;20632;-59
2022/04/21 11:09:03;;;;;;;1.35;0.60;;;22.90;63.90;;;;;;4035781;29;20190;-62
2022/04/21 11:11:05;;;;;;;2.13;0.63;;;22.90;63.80;;;;;;4033855;29;20055;-60
2022/04/21 11:13:10;;;;;;;1.48;0.70;;;22.90;64.60;;;;;;4017955;29;20112;-62
2022/04/21 11:15:49;;;;;;;1.60;0.60;;;22.90;63.80;;;;;;4038812;29;20575;-60
2022/04/21 11:18:09;;;;;;;1.45;0.70;;;22.90;63.70;;;;;;4018604;29;21824;-61
2022/04/21 11:20:27;;;;;;;2.60;0.60;;;22.90;63.70;;;;;;4023667;29;20052;-60
2022/04/21 11:22:42;;;;;;;5.55;1.05;;;22.90;63.70;;;;;;4002160;29;20060;-63
2022/04/21 11:24:56;;;;;;;1.38;0.50;;;23.00;63.70;;;;;;4032330;29;20135;-61
2022/04/21 11:26:59;;;;;;;2.58;0.80;;;23.00;63.80;;;;;;4032678;29;20162;-60
2022/04/21 11:29:03;;;;;;;2.30;0.73;;;23.00;63.80;;;;;;4021254;29;20487;-62
2022/04/21 11:31:05;;;;;;;10.63;0.93;;;23.00;63.80;;;;;;4040205;29;20079;-61
2022/04/21 11:33:12;;;;;;;1.60;0.82;;;23.00;63.80;;;;;;4015835;29;20068;-63
2022/04/21 11:35:16;;;;;;;1.85;0.93;;;23.00;63.90;;;;;;4035714;29;20060;-59
2022/04/21 11:37:18;;;;;;;2.63;0.77;;;23.00;63.90;;;;;;4036142;29;20513;-64